Flight Track Log - Related Links

Times and Time Zones

All times are in EDT time to prevent confusion due to time zone crossing. See the N433JM flight status page for this flight to view local times or setup timezone preferences in your user account.

Time Position Orientation Groundspeed Altitude Reporting Facility
EDT Latitude Longitude Course Direction KTS MPH feet Rate Location/Type
Fri 03:25:48 PM 29.1792 -82.2267 355° North 135 155 600  Level Jacksonville Center
Fri 03:27:01 PM 29.2253 -82.2311 355° North 148 170 3,000 2,140 Climbing Jacksonville Center
Fri 03:27:57 PM 29.2606 -82.2403 347° North 146 168 5,200 2,051 Climbing Jacksonville Center
Fri 03:28:58 PM 29.3003 -82.2472 351° North 146 168 7,000 1,918 Climbing Jacksonville Center
Fri 03:29:59 PM 29.3483 -82.2611 346° North 158 182 9,100 1,488 Climbing Jacksonville Center
Fri 03:30:59 PM 29.3922 -82.2681 352° North 178 205 10,000 470 Climbing Jacksonville Center
Fri 03:31:54 PM 29.4444 -82.2772 351° North 229 264 10,000  Level Jacksonville Center
Fri 03:32:55 PM 29.5136 -82.2983 345° North 237 273 10,000  Level Jacksonville Center
Fri 03:34:07 PM 29.5803 -82.3100 351° North 246 283 10,000 273 Level Jacksonville Center
Fri 03:35:07 PM 29.6411 -82.3239 349° North 246 283 10,600 1,200 Climbing Jacksonville Center
Fri 03:36:07 PM 29.6933 -82.3356 349° North 213 245 12,400 1,650 Climbing Jacksonville Center
Fri 03:37:07 PM 29.7414 -82.3472 348° North 193 222 13,900 1,400 Climbing Jacksonville Center
Fri 03:38:07 PM 29.7914 -82.3589 349° North 180 207 15,200 1,300 Climbing Jacksonville Center
Fri 03:39:07 PM 29.8436 -82.3681 351° North 180 207 16,500 1,300 Climbing Jacksonville Center
Fri 03:40:07 PM 29.8939 -82.3800 348° North 180 207 17,800 1,150 Climbing Jacksonville Center
Fri 03:41:07 PM 29.9461 -82.3917 349° North 180 207 18,800 1,150 Climbing Jacksonville Center
Fri 03:42:07 PM 29.9983 -82.4033 349° North 180 207 20,100 1,250 Climbing Jacksonville Center
Fri 03:43:07 PM 30.0569 -82.4175 348° North 186 214 21,300 1,100 Climbing Jacksonville Center
Fri 03:44:07 PM 30.1133 -82.4317 348° North 192 221 22,300 1,000 Climbing Jacksonville Center
Fri 03:45:07 PM 30.1717 -82.4433 350° North 202 232 23,300 1,050 Climbing Jacksonville Center
Fri 03:46:07 PM 30.2283 -82.4575 348° North 207 238 24,400 1,000 Climbing Jacksonville Center
Fri 03:47:07 PM 30.2889 -82.4692 351° North 207 238 25,300 850 Climbing Jacksonville Center
Fri 03:48:07 PM 30.3472 -82.4833 348° North 207 238 26,100 800 Climbing Jacksonville Center
Fri 03:49:07 PM 30.4078 -82.4950 351° North 207 238 26,900 450 Climbing Jacksonville Center
Fri 03:50:07 PM 30.4686 -82.5094 348° North 217 250 27,000 50 Climbing Jacksonville Center
Fri 03:51:07 PM 30.5353 -82.5258 348° North 229 264 27,000  Level Jacksonville Center
Fri 03:52:07 PM 30.6042 -82.5403 350° North 236 272 27,000  Level Jacksonville Center
Fri 03:53:07 PM 30.6733 -82.5544 350° North 243 280 27,000  Level Jacksonville Center
Fri 03:54:07 PM 30.7422 -82.5711 348° North 243 280 27,000  Level Jacksonville Center
Fri 03:55:07 PM 30.8131 -82.5878 349° North 248 285 27,000  Level Jacksonville Center
Fri 03:56:07 PM 30.8842 -82.6044 349° North 248 285 27,000  Level Jacksonville Center
Fri 03:57:07 PM 30.9531 -82.6189 350° North 253 291 27,000  Level Jacksonville Center
Fri 03:58:07 PM 31.0222 -82.6356 348° North 253 291 27,000  Level Jacksonville Center
Fri 03:59:07 PM 31.0911 -82.6525 348° North 258 297 27,000  Level Jacksonville Center
Fri 04:00:07 PM 31.1558 -82.6644 351° North 258 297 27,000  Level Jacksonville Center
Fri 04:01:07 PM 31.2267 -82.6789 350° North 252 290 27,000  Level Jacksonville Center
Fri 04:02:07 PM 31.2978 -82.6981 347° North 252 290 27,000  Level Jacksonville Center
Fri 04:03:07 PM 31.3667 -82.7125 350° North 258 297 27,000  Level Jacksonville Center
Fri 04:04:07 PM 31.4378 -82.7294 349° North 258 297 27,000  Level Jacksonville Center
Fri 04:05:07 PM 31.5067 -82.7464 348° North 258 297 27,000  Level Jacksonville Center
Fri 04:06:07 PM 31.5756 -82.7633 348° North 258 297 27,000  Level Jacksonville Center
Fri 04:07:07 PM 31.6467 -82.7778 350° North 258 297 27,000  Level Jacksonville Center
Fri 04:08:07 PM 31.7175 -82.7925 350° North 258 297 27,000  Level Jacksonville Center
Fri 04:09:07 PM 31.7864 -82.8094 348° North 258 297 27,000  Level Jacksonville Center
Fri 04:11:32 PM 31.9622 -82.8517 348° North 255 293 27,000  Level Atlanta Center
Fri 04:12:32 PM 32.0311 -82.8678 349° North 255 293 27,000  Level Atlanta Center
Fri 04:13:32 PM 32.1003 -82.8864 347° North 255 293 27,000  Level Atlanta Center
Fri 04:14:32 PM 32.1692 -82.9003 350° North 255 293 27,000  Level Atlanta Center
Fri 04:15:32 PM 32.2383 -82.9192 347° North 255 293 27,000  Level Atlanta Center
Fri 04:16:32 PM 32.3072 -82.9356 349° North 255 293 27,000  Level Atlanta Center
Fri 04:17:32 PM 32.3783 -82.9517 349° North 255 293 27,000  Level Atlanta Center
Fri 04:18:32 PM 32.4475 -82.9706 347° North 260 299 27,000  Level Atlanta Center
Fri 04:19:32 PM 32.5164 -82.9844 350° North 260 299 27,000  Level Atlanta Center
Fri 04:20:32 PM 32.5875 -83.0008 349° North 255 293 27,000  Level Atlanta Center
Fri 04:21:32 PM 32.6628 -83.0222 347° North 261 300 27,000  Level Atlanta Center
Fri 04:22:32 PM 32.7319 -83.0339 352° North 261 300 27,000  Level Atlanta Center
Fri 04:23:32 PM 32.7947 -83.0481 349° North 254 292 27,000  Level Atlanta Center
Fri 04:24:32 PM 32.8658 -83.0644 349° North 254 292 27,000  Level Atlanta Center
Fri 04:25:32 PM 32.9369 -83.0833 347° North 254 292 27,000  Level Atlanta Center
Fri 04:26:32 PM 33.0058 -83.1000 349° North 254 292 27,000 200 Level Atlanta Center
Fri 04:27:32 PM 33.0728 -83.1192 347° North 254 292 27,400 450 Climbing Atlanta Center
Fri 04:28:32 PM 33.1375 -83.1358 348° North 245 282 27,900 300 Climbing Atlanta Center
Fri 04:29:32 PM 33.2044 -83.1525 348° North 235 270 28,000 50 Climbing Atlanta Center
Fri 04:30:32 PM 33.2797 -83.1667 351° North 240 276 28,000  Level Atlanta Center
Fri 04:31:32 PM 33.3489 -83.1833 349° North 245 282 28,000  Level Atlanta Center
Fri 04:32:32 PM 33.4178 -83.2000 349° North 245 282 28,000  Level Atlanta Center
Fri 04:33:32 PM 33.4847 -83.2194 346° North 245 282 28,000  Level Atlanta Center
Fri 04:34:32 PM 33.5558 -83.2336 351° North 246 283 28,000  Level Atlanta Center
Fri 04:35:32 PM 33.6225 -83.2506 348° North 246 283 28,000  Level Atlanta Center
Fri 04:36:32 PM 33.6917 -83.2672 349° North 246 283 28,000  Level Atlanta Center
Fri 04:37:32 PM 33.7606 -83.2817 350° North 246 283 28,000  Level Atlanta Center
Fri 04:38:32 PM 33.8317 -83.2986 349° North 254 292 28,000  Level Atlanta Center
Fri 04:39:32 PM 33.8986 -83.3156 348° North 254 292 28,000  Level Atlanta Center
Fri 04:40:32 PM 33.9697 -83.3325 349° North 259 298 28,000  Level Atlanta Center
Fri 04:41:32 PM 34.0322 -83.3494 347° North 259 298 28,000  Level Atlanta Center
Fri 04:42:32 PM 34.1033 -83.3639 350° North 259 298 28,000  Level Atlanta Center
Fri 04:43:32 PM 34.1744 -83.3833 347° North 254 292 28,000  Level Atlanta Center
Fri 04:44:32 PM 34.2414 -83.3981 350° North 254 292 28,000  Level Atlanta Center
Fri 04:45:32 PM 34.3081 -83.4150 348° North 254 292 28,000  Level Atlanta Center
Fri 04:46:32 PM 34.3792 -83.4322 349° North 254 292 28,000  Level Atlanta Center
Fri 04:47:32 PM 34.4481 -83.4494 348° North 254 292 28,000  Level Atlanta Center
Fri 04:48:32 PM 34.5150 -83.4664 348° North 249 287 28,000  Level Atlanta Center
Fri 04:49:32 PM 34.5903 -83.4836 349° North 249 287 28,000  Level Atlanta Center
Fri 04:50:32 PM 34.6592 -83.5008 348° North 249 287 28,000  Level Atlanta Center
Fri 04:51:32 PM 34.7261 -83.5208 346° North 249 287 28,000  Level Atlanta Center
Fri 04:52:32 PM 34.7950 -83.5381 348° North 249 287 28,000  Level Atlanta Center
Fri 04:53:32 PM 34.8661 -83.5528 350° North 244 281 28,000  Level Atlanta Center
Fri 04:54:32 PM 34.9225 -83.5625 352° North 244 281 28,000  Level Atlanta Center
Fri 04:55:32 PM 34.9956 -83.5875 344° North 244 281 28,000  Level Atlanta Center
Fri 04:56:32 PM 35.0625 -83.6047 348° North 244 281 28,000  Level Atlanta Center
Fri 04:57:32 PM 35.1333 -83.6222 349° North 244 281 28,000  Level Atlanta Center
Fri 04:58:32 PM 35.1981 -83.6397 348° North 239 275 28,000  Level Atlanta Center
Fri 04:59:32 PM 35.2650 -83.6572 348° North 239 275 28,000  Level Atlanta Center
Fri 05:00:32 PM 35.3317 -83.6722 350° North 239 275 28,000  Level Atlanta Center
Fri 05:01:32 PM 35.3986 -83.6922 346° North 239 275 28,000  Level Atlanta Center
Fri 05:02:32 PM 35.4675 -83.7097 348° North 239 275 28,000  Level Atlanta Center
Fri 05:03:32 PM 35.5322 -83.7247 349° North 239 275 28,000  Level Atlanta Center
Fri 05:04:32 PM 35.6011 -83.7425 348° North 239 275 28,000  Level Atlanta Center
Fri 05:05:32 PM 35.6678 -83.7603 348° North 239 275 28,000  Level Atlanta Center
Fri 05:06:32 PM 35.7325 -83.7753 349° North 239 275 28,000  Level Atlanta Center
Fri 05:07:32 PM 35.7994 -83.7903 350° North 239 275 28,000  Level Atlanta Center
Fri 05:08:32 PM 35.8661 -83.8106 346° North 239 275 28,000  Level Atlanta Center
Fri 05:09:32 PM 35.9331 -83.8258 350° North 239 275 28,000  Level Atlanta Center
Fri 05:10:32 PM 35.9997 -83.8464 346° North 239 275 28,000  Level Atlanta Center
Fri 05:11:32 PM 36.0664 -83.8614 350° North 239 275 28,000  Level Atlanta Center
Fri 05:12:32 PM 36.1311 -83.8767 349° North 239 275 28,000  Level Atlanta Center
Fri 05:13:32 PM 36.1981 -83.8947 348° North 239 275 28,000  Level Atlanta Center
Fri 05:14:49 PM 36.2889 -83.9167 349° North 243 280 28,000  Level Indianapolis Center
Fri 05:15:51 PM 36.3539 -83.9336 348° North 239 275 28,000  Level Indianapolis Center
Fri 05:16:53 PM 36.4211 -83.9511 348° North 244 281 28,000  Level Indianapolis Center
Fri 05:17:55 PM 36.4872 -83.9675 349° North 243 280 28,000  Level Indianapolis Center
Fri 05:18:57 PM 36.5661 -83.9881 348° North 246 283 28,000  Level Indianapolis Center
Fri 05:19:59 PM 36.6331 -84.0053 348° North 246 283 28,000  Level Indianapolis Center
Fri 05:21:01 PM 36.7008 -84.0231 348° North 247 284 28,000  Level Indianapolis Center
Fri 05:22:03 PM 36.7681 -84.0411 348° North 247 284 28,000  Level Indianapolis Center
Fri 05:23:05 PM 36.8358 -84.0589 348° North 247 284 28,000  Level Indianapolis Center
Fri 05:24:07 PM 36.9031 -84.0772 348° North 246 283 28,000 -432 Level Indianapolis Center
Fri 05:25:10 PM 36.9836 -84.0989 348° North 251 289 27,100 -960 Descending Indianapolis Center
Fri 05:26:12 PM 37.0606 -84.1175 349° North 275 316 26,000 -1,113 Descending Indianapolis Center
Fri 05:27:14 PM 37.1339 -84.1383 347° North 272 313 24,800 -1,210 Descending Indianapolis Center
Fri 05:28:16 PM 37.2072 -84.1592 347° North 270 311 23,500 -1,403 Descending Indianapolis Center
Fri 05:29:18 PM 37.2828 -84.1769 349° North 274 315 21,900 -1,548 Descending Indianapolis Center
Fri 05:30:20 PM 37.3558 -84.1994 346° North 271 312 20,300 -1,597 Descending Indianapolis Center
Fri 05:31:22 PM 37.4425 -84.2194 350° North 272 313 18,600 -1,306 Descending Indianapolis Center
Fri 05:32:24 PM 37.5142 -84.2406 347° North 266 306 17,600 -1,161 Descending Indianapolis Center
Fri 05:33:26 PM 37.5883 -84.2564 350° North 273 314 16,200 -1,306 Descending Indianapolis Center
Fri 05:34:28 PM 37.6606 -84.2767 347° North 270 311 14,900 -1,306 Descending Indianapolis Center
Fri 05:35:30 PM 37.7300 -84.2964 347° North 259 298 13,500 -1,500 Descending Indianapolis Center
Fri 05:36:32 PM 37.8125 -84.3200 347° North 259 298 11,800 -1,742 Descending Indianapolis Center
Fri 05:37:34 PM 37.8853 -84.3378 349° North 263 303 9,900 -1,887 Descending Indianapolis Center
Fri 05:38:36 PM 37.9581 -84.3600 346° North 267 307 7,900 -1,694 Descending Indianapolis Center
Fri 05:39:38 PM 38.0331 -84.3642 357° North 269 310 6,400 -1,258 Descending Indianapolis Center
Fri 05:40:40 PM 38.1078 -84.3686 357° North 270 311 5,300 -1,056 Descending Indianapolis Center
Fri 05:41:43 PM 38.1792 -84.3750 356° North 264 304 4,200 -1,152 Descending Indianapolis Center
Fri 05:42:45 PM 38.2506 -84.3736 North 236 272 2,900 -677 Descending Indianapolis Center
Fri 05:43:47 PM 38.3058 -84.3689 North 232 267 2,800 -97 Descending Indianapolis Center
Fri 05:45:00 PM 38.2405 -84.4292 North  Level Estimated

Login

Don't have an account? Register now (free) for customized features, flight alerts, and more!